Time;durP1;ratioP1;P1;durP2;ratioP2;P2;SDS_P1;SDS_P2;PMS_P1;PMS_P2;Temp;Humidity;BMP_temperature;BMP_pressure;BME280_temperature;BME280_humidity;BME280_pressure;Samples;Min_cycle;Max_cycle;Signal;HPM_P1;HPM_P2
2022/11/20 00:00:17;;;;;;;15.20;13.70;;;3.70;88.50;;;;;;5044258;28;20436;-72
2022/11/20 00:02:44;;;;;;;15.07;13.68;;;3.70;89.60;;;;;;5040554;28;20914;-72
2022/11/20 00:05:11;;;;;;;14.98;13.68;;;3.60;90.00;;;;;;5028640;28;20430;-72
2022/11/20 00:07:37;;;;;;;13.80;12.50;;;3.70;90.20;;;;;;5040866;28;20430;-72
2022/11/20 00:10:05;;;;;;;14.32;12.93;;;3.60;89.90;;;;;;5042178;28;21063;-72
2022/11/20 00:12:33;;;;;;;14.57;13.23;;;3.60;89.40;;;;;;5044349;28;21099;-72
2022/11/20 00:14:59;;;;;;;14.10;12.80;;;3.60;88.80;;;;;;5045179;28;20766;-72
2022/11/20 00:17:26;;;;;;;14.57;13.10;;;3.60;89.50;;;;;;5044786;28;20560;-72
2022/11/20 00:19:53;;;;;;;14.80;13.43;;;3.60;90.10;;;;;;5043447;28;20429;-73
2022/11/20 00:22:20;;;;;;;14.82;13.43;;;3.60;90.10;;;;;;5044390;28;20430;-73
2022/11/20 00:24:46;;;;;;;13.00;11.80;;;3.70;90.10;;;;;;5042430;28;20473;-72
2022/11/20 00:27:13;;;;;;;14.35;13.05;;;3.70;89.30;;;;;;5031636;28;20498;-72
2022/11/20 00:29:41;;;;;;;13.75;12.45;;;3.70;88.70;;;;;;5045754;28;20421;-72
2022/11/20 00:32:08;;;;;;;14.75;13.20;;;3.60;87.90;;;;;;5044955;28;20516;-72
2022/11/20 00:34:35;;;;;;;14.70;13.20;;;3.60;88.90;;;;;;5043444;28;20428;-73
2022/11/20 00:37:01;;;;;;;14.73;13.32;;;3.60;89.80;;;;;;5044172;28;20979;-73
2022/11/20 00:39:28;;;;;;;14.53;13.20;;;3.60;89.50;;;;;;5049450;28;20535;-72
2022/11/20 00:41:55;;;;;;;13.88;12.60;;;3.60;89.50;;;;;;5043230;28;20911;-72
2022/11/20 00:44:22;;;;;;;14.05;12.65;;;3.60;89.20;;;;;;5046184;28;20413;-72
2022/11/20 00:46:50;;;;;;;14.85;13.30;;;3.60;88.90;;;;;;5043675;28;20441;-72
2022/11/20 00:49:16;;;;;;;14.80;13.50;;;3.60;89.70;;;;;;5037717;28;20448;-72
2022/11/20 00:51:43;;;;;;;14.32;12.93;;;3.60;89.90;;;;;;5041994;28;20443;-72
2022/11/20 00:54:10;;;;;;;14.07;12.70;;;3.60;89.30;;;;;;5047257;28;20543;-72
2022/11/20 00:56:37;;;;;;;14.70;13.30;;;3.60;89.50;;;;;;5041801;28;20867;-72
2022/11/20 00:59:03;;;;;;;13.93;12.63;;;3.60;89.10;;;;;;5037347;28;20424;-72
2022/11/20 01:01:31;;;;;;;13.80;12.50;;;3.60;89.10;;;;;;5055955;28;20413;-73
2022/11/20 01:04:00;;;;;;;14.68;13.27;;;3.60;89.40;;;;;;5058516;28;20477;-73
2022/11/20 01:06:29;;;;;;;14.75;13.35;;;3.60;90.00;;;;;;5051283;28;20486;-72
2022/11/20 01:08:58;;;;;;;13.75;12.35;;;3.60;89.90;;;;;;5051896;28;20456;-72
2022/11/20 01:11:28;;;;;;;13.77;12.48;;;3.60;90.10;;;;;;5042786;28;20903;-72
2022/11/20 01:13:55;;;;;;;13.65;12.38;;;3.60;90.00;;;;;;5043771;28;20448;-73
2022/11/20 01:16:25;;;;;;;13.88;12.57;;;3.60;89.70;;;;;;5038983;28;20434;-72
2022/11/20 01:18:54;;;;;;;13.88;12.57;;;3.60;88.90;;;;;;5044031;28;20771;-72
2022/11/20 01:21:27;;;;;;;13.67;12.40;;;3.60;88.20;;;;;;5043898;28;20755;-73
2022/11/20 01:23:54;;;;;;;13.85;12.55;;;3.60;88.90;;;;;;5049830;28;20417;-73
2022/11/20 01:26:23;;;;;;;13.68;12.48;;;3.50;89.20;;;;;;5054432;28;20421;-73
2022/11/20 01:28:50;;;;;;;13.25;11.95;;;3.50;89.00;;;;;;5051362;28;20417;-73
2022/11/20 01:31:19;;;;;;;13.95;12.75;;;3.50;88.80;;;;;;5049450;28;20467;-72
2022/11/20 01:33:47;;;;;;;14.57;13.18;;;3.60;88.60;;;;;;5049515;28;21070;-72
2022/11/20 01:36:16;;;;;;;14.00;12.70;;;3.60;88.70;;;;;;5038839;28;20417;-72
2022/11/20 01:38:44;;;;;;;14.50;13.20;;;3.60;88.30;;;;;;5037720;28;20420;-72
2022/11/20 01:43:20;;;;;;;14.53;13.23;;;3.50;88.40;;;;;;5037405;28;20413;-73
2022/11/20 01:43:59;;;;;;;14.20;12.90;;;3.50;88.90;;;;;;5044758;28;20500;-72
2022/11/20 01:46:26;;;;;;;13.38;12.13;;;3.50;88.70;;;;;;5043217;28;20433;-72
2022/11/20 01:48:58;;;;;;;14.70;13.40;;;3.50;89.20;;;;;;5037216;28;20849;-72
2022/11/20 01:51:29;;;;;;;14.30;12.90;;;3.50;89.70;;;;;;5042538;28;20416;-72
2022/11/20 01:54:01;;;;;;;13.80;12.50;;;3.50;90.00;;;;;;5031856;28;20466;-72
2022/11/20 01:56:32;;;;;;;14.25;12.95;;;3.60;89.80;;;;;;5043558;28;20433;-72
2022/11/20 01:59:02;;;;;;;14.07;12.88;;;3.60;89.00;;;;;;5044028;28;20413;-72
2022/11/20 02:01:29;;;;;;;14.07;12.77;;;3.60;89.00;;;;;;5047296;28;20433;-73
2022/11/20 02:03:57;;;;;;;14.33;12.97;;;3.60;89.20;;;;;;5036486;28;20419;-73
2022/11/20 02:06:26;;;;;;;13.85;12.55;;;3.60;88.30;;;;;;5049817;28;20424;-74
2022/11/20 02:08:54;;;;;;;13.88;12.57;;;3.60;88.20;;;;;;5056811;28;20808;-72
2022/11/20 02:11:22;;;;;;;13.10;11.90;;;3.60;88.90;;;;;;5049039;28;20780;-72
2022/11/20 02:13:49;;;;;;;13.43;12.23;;;3.60;87.50;;;;;;5051529;28;21258;-72
2022/11/20 02:16:22;;;;;;;14.43;13.13;;;3.50;87.90;;;;;;5057573;28;20440;-72
2022/11/20 02:18:50;;;;;;;13.20;11.90;;;3.50;88.40;;;;;;5039824;28;20413;-72
2022/11/20 02:21:32;;;;;;;14.73;13.43;;;3.50;89.20;;;;;;5039870;28;20537;-73
2022/11/20 02:24:10;;;;;;;15.65;14.15;;;3.50;90.00;;;;;;5053822;28;20436;-72
2022/11/20 02:26:43;;;;;;;15.68;14.18;;;3.50;89.60;;;;;;5048601;28;20421;-72
2022/11/20 02:29:10;;;;;;;14.93;13.52;;;3.50;89.60;;;;;;5048577;28;20424;-72
2022/11/20 02:31:39;;;;;;;14.32;12.93;;;3.60;89.10;;;;;;5048304;28;20866;-72
2022/11/20 02:34:06;;;;;;;14.30;13.00;;;3.60;89.60;;;;;;5053330;28;20435;-72
2022/11/20 02:36:35;;;;;;;14.35;13.05;;;3.60;89.10;;;;;;5043074;28;20437;-72
2022/11/20 02:39:02;;;;;;;14.60;13.20;;;3.50;88.70;;;;;;5049554;28;20448;-72
2022/11/20 02:41:35;;;;;;;14.35;13.05;;;3.50;88.70;;;;;;5041850;28;20413;-72
2022/11/20 02:44:02;;;;;;;14.30;13.10;;;3.50;88.90;;;;;;5047271;28;20555;-72
2022/11/20 02:46:29;;;;;;;14.25;12.95;;;3.50;88.40;;;;;;5047843;28;20429;-72
2022/11/20 02:48:56;;;;;;;13.90;12.60;;;3.50;87.60;;;;;;5051707;28;20442;-72
2022/11/20 02:51:23;;;;;;;14.65;13.35;;;3.50;87.90;;;;;;5039162;28;20433;-72
2022/11/20 02:53:49;;;;;;;14.10;12.80;;;3.40;88.80;;;;;;5048281;28;20516;-72
2022/11/20 02:56:17;;;;;;;14.65;13.35;;;3.40;89.40;;;;;;5031288;28;20425;-72
2022/11/20 02:58:45;;;;;;;15.05;13.65;;;3.40;89.70;;;;;;5042071;28;20423;-73
2022/11/20 03:01:12;;;;;;;14.00;12.70;;;3.40;90.10;;;;;;5042522;28;20413;-72
2022/11/20 03:03:38;;;;;;;14.02;12.73;;;3.50;89.50;;;;;;5046035;28;20725;-72
2022/11/20 03:06:06;;;;;;;14.38;13.07;;;3.40;88.90;;;;;;5049207;28;20538;-72
2022/11/20 03:08:33;;;;;;;13.90;12.60;;;3.40;89.50;;;;;;5039478;28;20441;-72
2022/11/20 03:11:04;;;;;;;13.25;12.05;;;3.40;88.60;;;;;;5045873;28;20448;-72
2022/11/20 03:13:31;;;;;;;13.65;12.35;;;3.40;88.60;;;;;;5046111;28;20934;-72
2022/11/20 03:15:59;;;;;;;14.65;13.25;;;3.40;88.80;;;;;;5045836;28;20436;-72
2022/11/20 03:18:29;;;;;;;14.55;13.18;;;3.40;89.60;;;;;;5045444;28;20463;-72
2022/11/20 03:20:59;;;;;;;14.20;12.80;;;3.40;89.70;;;;;;5049378;28;20750;-73
2022/11/20 03:23:25;;;;;;;14.52;13.23;;;3.40;89.60;;;;;;5052092;28;20506;-72
2022/11/20 03:25:53;;;;;;;14.82;13.43;;;3.40;90.00;;;;;;5035467;28;20417;-72
2022/11/20 03:28:19;;;;;;;14.25;12.95;;;3.40;90.10;;;;;;5058323;28;20524;-73
2022/11/20 03:30:46;;;;;;;14.82;13.43;;;3.40;90.00;;;;;;5066644;28;20481;-72
2022/11/20 03:33:14;;;;;;;14.00;12.70;;;3.50;89.20;;;;;;5066230;28;20459;-73
2022/11/20 03:35:41;;;;;;;14.75;13.35;;;3.40;89.20;;;;;;5052139;28;20425;-72
2022/11/20 03:38:08;;;;;;;14.83;13.43;;;3.40;90.20;;;;;;5037345;28;20434;-72
2022/11/20 03:40:35;;;;;;;14.35;13.05;;;3.50;90.00;;;;;;5041591;28;20419;-72
2022/11/20 03:43:02;;;;;;;14.57;13.18;;;3.40;89.80;;;;;;5043731;28;20409;-72
2022/11/20 03:45:29;;;;;;;14.82;13.43;;;3.40;89.90;;;;;;5048311;28;20524;-72
2022/11/20 03:47:55;;;;;;;14.25;12.85;;;3.50;90.00;;;;;;5043786;28;20417;-72
2022/11/20 03:50:23;;;;;;;13.43;12.13;;;3.50;90.00;;;;;;5039622;28;20425;-72
2022/11/20 03:52:50;;;;;;;15.03;13.63;;;3.50;90.00;;;;;;5047657;28;20527;-72
2022/11/20 03:55:17;;;;;;;14.88;13.38;;;3.50;89.80;;;;;;5041431;28;20507;-72
2022/11/20 03:57:44;;;;;;;15.20;13.75;;;3.50;90.00;;;;;;5046057;28;20417;-72
2022/11/20 04:00:12;;;;;;;14.57;13.18;;;3.50;90.20;;;;;;5046054;28;21045;-72
2022/11/20 04:02:38;;;;;;;14.60;13.30;;;3.40;90.40;;;;;;5045065;28;20520;-72
2022/11/20 04:05:06;;;;;;;15.47;14.07;;;3.40;90.40;;;;;;5047127;28;20531;-72
2022/11/20 04:07:36;;;;;;;15.60;14.20;;;3.40;90.10;;;;;;5047023;28;20437;-72
2022/11/20 04:10:03;;;;;;;16.13;14.63;;;3.40;90.50;;;;;;5044805;28;20443;-73
2022/11/20 04:12:33;;;;;;;15.70;14.30;;;3.40;90.70;;;;;;5054094;28;20521;-72
2022/11/20 04:14:59;;;;;;;15.45;13.95;;;3.30;90.80;;;;;;5055006;28;20436;-72
2022/11/20 04:17:26;;;;;;;16.17;14.68;;;3.30;90.80;;;;;;5054575;28;20413;-72
2022/11/20 04:19:53;;;;;;;17.10;15.33;;;3.30;90.90;;;;;;5056851;28;20466;-72
2022/11/20 04:22:19;;;;;;;16.60;15.02;;;3.30;90.90;;;;;;5059602;28;21051;-72
2022/11/20 04:24:47;;;;;;;15.10;13.60;;;3.30;91.10;;;;;;5045444;28;20429;-72
2022/11/20 04:27:14;;;;;;;16.60;15.00;;;3.20;91.30;;;;;;5052106;28;20516;-73
2022/11/20 04:29:41;;;;;;;15.70;14.20;;;3.20;91.40;;;;;;5046764;28;20427;-72
2022/11/20 04:32:08;;;;;;;15.80;14.30;;;3.10;91.60;;;;;;5045411;28;20422;-72
2022/11/20 04:34:35;;;;;;;15.95;14.35;;;3.10;91.80;;;;;;5044382;28;20429;-73
2022/11/20 04:37:01;;;;;;;15.18;13.68;;;3.10;92.10;;;;;;5050381;28;20444;-75
2022/11/20 04:39:28;;;;;;;15.95;14.35;;;3.20;92.20;;;;;;5044664;28;20440;-72
2022/11/20 04:44:37;;;;;;;17.03;15.33;;;3.20;92.40;;;;;;5046867;28;20409;-72
2022/11/20 04:47:04;;;;;;;16.85;15.25;;;3.30;92.10;;;;;;5041993;28;20415;-72
2022/11/20 04:49:31;;;;;;;17.30;15.60;;;3.30;91.90;;;;;;5043042;28;20445;-72
2022/11/20 04:51:58;;;;;;;16.80;15.20;;;3.20;91.80;;;;;;5038579;28;20430;-72
2022/11/20 04:54:25;;;;;;;16.75;15.15;;;3.20;92.30;;;;;;5032600;28;20440;-72
2022/11/20 04:56:52;;;;;;;17.50;15.80;;;3.20;92.40;;;;;;5045303;28;20423;-72
2022/11/20 04:59:20;;;;;;;18.27;16.40;;;3.20;92.50;;;;;;5044536;28;20435;-72
2022/11/20 05:01:46;;;;;;;18.08;16.27;;;3.20;92.50;;;;;;5047030;28;20431;-72
2022/11/20 05:04:13;;;;;;;20.20;18.20;;;3.20;92.50;;;;;;5039573;28;20821;-72
2022/11/20 05:06:40;;;;;;;19.92;17.95;;;3.20;92.40;;;;;;5038069;28;20906;-72
2022/11/20 05:09:07;;;;;;;18.38;16.48;;;3.30;92.50;;;;;;5038775;28;20413;-72
2022/11/20 05:11:33;;;;;;;17.80;16.00;;;3.30;92.50;;;;;;5044289;28;20787;-72
2022/11/20 05:14:00;;;;;;;18.70;16.90;;;3.30;92.60;;;;;;5044416;28;20480;-72
2022/11/20 05:16:28;;;;;;;18.98;17.08;;;3.30;92.60;;;;;;5044353;28;20433;-72
2022/11/20 05:18:55;;;;;;;18.20;16.40;;;3.30;92.40;;;;;;5048927;28;20969;-72
2022/11/20 05:21:23;;;;;;;18.93;17.03;;;3.40;92.50;;;;;;5036282;28;20955;-72
2022/11/20 05:23:49;;;;;;;16.73;15.13;;;3.40;92.70;;;;;;5041424;28;20433;-72
2022/11/20 05:26:19;;;;;;;18.35;16.60;;;3.40;92.80;;;;;;5044532;28;20807;-72
2022/11/20 05:28:47;;;;;;;18.05;16.35;;;3.40;92.70;;;;;;5044062;28;20433;-73
2022/11/20 05:31:16;;;;;;;17.60;15.90;;;3.40;92.80;;;;;;5028642;28;20751;-72
2022/11/20 05:33:46;;;;;;;18.10;16.30;;;3.50;92.80;;;;;;5053652;28;20435;-74
2022/11/20 05:36:13;;;;;;;17.85;16.13;;;3.50;92.80;;;;;;5065469;28;20437;-74
2022/11/20 05:38:42;;;;;;;18.92;17.02;;;3.50;92.70;;;;;;5056410;28;20427;-74
2022/11/20 05:41:10;;;;;;;18.10;16.30;;;3.50;92.90;;;;;;5038593;28;20441;-72
2022/11/20 05:43:39;;;;;;;18.88;17.00;;;3.60;93.10;;;;;;5043848;28;20414;-73
2022/11/20 05:46:07;;;;;;;19.52;17.63;;;3.60;93.00;;;;;;5044881;28;20543;-73
2022/11/20 05:48:35;;;;;;;19.03;17.23;;;3.60;93.00;;;;;;5038416;28;20413;-73
2022/11/20 05:51:06;;;;;;;18.52;16.70;;;3.70;93.00;;;;;;5048700;28;20513;-73
2022/11/20 05:53:34;;;;;;;18.88;16.88;;;3.70;92.80;;;;;;5047522;28;20444;-73
2022/11/20 05:56:02;;;;;;;19.88;17.38;;;3.70;93.00;;;;;;5047388;28;20535;-73
2022/11/20 05:58:30;;;;;;;19.88;17.88;;;3.70;92.90;;;;;;5047842;28;20413;-73
2022/11/20 06:01:04;;;;;;;18.40;16.50;;;3.70;92.70;;;;;;5047207;28;20444;-74
2022/11/20 06:03:31;;;;;;;19.30;17.30;;;3.70;92.80;;;;;;5043856;28;20421;-73
2022/11/20 06:05:59;;;;;;;19.73;17.63;;;3.70;92.80;;;;;;5051173;28;20436;-73
2022/11/20 06:08:28;;;;;;;19.60;17.63;;;3.80;92.50;;;;;;5048062;28;20475;-73
2022/11/20 06:10:54;;;;;;;19.27;17.30;;;3.80;92.30;;;;;;5047345;28;20468;-73
2022/11/20 06:13:21;;;;;;;18.73;16.83;;;3.80;92.00;;;;;;5047344;28;20443;-73
2022/11/20 06:15:49;;;;;;;18.90;17.10;;;3.80;92.10;;;;;;5046871;28;20512;-73
2022/11/20 06:18:16;;;;;;;19.80;17.80;;;3.70;92.50;;;;;;5047431;28;20433;-73
2022/11/20 06:20:43;;;;;;;20.17;18.17;;;3.70;92.40;;;;;;5048864;28;20927;-73
2022/11/20 06:23:10;;;;;;;19.30;17.40;;;3.70;92.40;;;;;;5035747;28;20810;-73
2022/11/20 06:25:40;;;;;;;19.52;17.52;;;3.70;92.60;;;;;;5039811;28;20969;-73
2022/11/20 06:28:07;;;;;;;20.60;18.60;;;3.70;92.70;;;;;;5048648;28;20549;-73
2022/11/20 06:30:33;;;;;;;19.80;17.80;;;3.80;92.70;;;;;;5053325;28;20899;-74
2022/11/20 06:33:00;;;;;;;19.55;17.55;;;3.80;92.40;;;;;;5049730;28;21121;-73
2022/11/20 06:35:27;;;;;;;21.33;19.08;;;3.80;92.50;;;;;;5050133;28;20433;-73
2022/11/20 06:37:53;;;;;;;20.50;18.40;;;3.80;92.40;;;;;;5048249;28;20440;-73
2022/11/20 06:40:20;;;;;;;20.13;17.92;;;3.80;92.60;;;;;;5040773;28;20424;-73
2022/11/20 06:42:48;;;;;;;20.45;18.45;;;3.80;92.60;;;;;;5047002;28;20423;-73
2022/11/20 06:45:15;;;;;;;20.83;18.63;;;3.80;92.50;;;;;;5047364;28;20421;-73
2022/11/20 06:47:42;;;;;;;19.70;17.70;;;3.80;92.70;;;;;;5047411;28;20789;-73
2022/11/20 06:50:09;;;;;;;21.33;17.38;;;3.80;92.70;;;;;;5052139;28;20435;-73
2022/11/20 06:52:36;;;;;;;19.33;17.33;;;3.80;92.70;;;;;;5050272;28;20420;-73
2022/11/20 06:55:03;;;;;;;19.07;17.07;;;3.80;92.60;;;;;;5046248;28;20467;-73
2022/11/20 06:57:29;;;;;;;19.33;17.33;;;3.80;92.50;;;;;;5042944;28;20421;-73
2022/11/20 06:59:57;;;;;;;17.90;16.10;;;3.90;92.50;;;;;;5046566;28;20521;-73
2022/11/20 07:02:24;;;;;;;17.02;15.32;;;3.90;92.40;;;;;;5035135;28;20437;-73
2022/11/20 07:04:51;;;;;;;16.08;14.57;;;3.90;92.20;;;;;;5037633;28;20452;-73
2022/11/20 07:07:18;;;;;;;15.67;14.23;;;3.90;92.20;;;;;;5039056;28;20746;-73
2022/11/20 07:09:44;;;;;;;15.05;13.65;;;3.90;92.40;;;;;;5042364;28;20925;-73
2022/11/20 07:12:11;;;;;;;16.38;14.88;;;3.80;92.00;;;;;;5034708;28;20417;-73
2022/11/20 07:14:38;;;;;;;15.43;13.93;;;3.80;92.20;;;;;;5047448;28;20433;-73
2022/11/20 07:17:06;;;;;;;17.13;15.35;;;3.80;92.20;;;;;;5046937;28;20425;-73
2022/11/20 07:19:33;;;;;;;16.45;14.82;;;3.80;92.00;;;;;;5050924;28;20440;-73
2022/11/20 07:21:59;;;;;;;17.17;15.60;;;3.80;91.90;;;;;;5045566;28;20956;-73
2022/11/20 07:24:26;;;;;;;16.90;15.30;;;3.80;92.40;;;;;;5037017;28;20434;-73
2022/11/20 07:26:53;;;;;;;16.10;14.60;;;3.80;92.20;;;;;;5044070;28;20429;-73
2022/11/20 07:29:19;;;;;;;17.67;16.05;;;3.80;92.10;;;;;;5046300;28;20910;-73
2022/11/20 07:31:46;;;;;;;16.60;15.00;;;3.80;92.10;;;;;;5038189;28;20442;-73
2022/11/20 07:34:14;;;;;;;16.80;15.10;;;3.80;92.10;;;;;;5042249;28;20425;-74
2022/11/20 07:36:41;;;;;;;16.10;14.60;;;3.80;92.10;;;;;;5046833;28;20478;-75
2022/11/20 07:39:08;;;;;;;17.20;15.60;;;3.80;92.20;;;;;;5059686;28;20424;-74
2022/11/20 07:41:34;;;;;;;16.70;15.10;;;3.80;92.10;;;;;;5058735;28;20418;-73
2022/11/20 07:44:01;;;;;;;18.10;16.40;;;3.80;92.10;;;;;;5056083;28;20412;-75
2022/11/20 07:46:28;;;;;;;17.52;15.82;;;3.90;92.20;;;;;;5035659;28;20519;-73
2022/11/20 07:48:55;;;;;;;17.35;15.65;;;3.90;92.30;;;;;;5046874;28;20461;-73
2022/11/20 07:51:23;;;;;;;17.87;16.17;;;3.90;92.30;;;;;;5035353;28;20750;-73
2022/11/20 07:53:51;;;;;;;16.13;14.52;;;4.00;92.30;;;;;;5039994;28;20503;-74
2022/11/20 07:56:18;;;;;;;17.60;15.90;;;4.00;92.00;;;;;;5046149;28;20895;-73
2022/11/20 07:58:45;;;;;;;16.25;14.75;;;4.00;91.90;;;;;;5046116;28;20480;-73
2022/11/20 08:01:12;;;;;;;17.98;16.27;;;4.00;91.80;;;;;;5043424;28;20415;-73
2022/11/20 08:03:38;;;;;;;17.55;15.85;;;4.00;91.80;;;;;;5042141;28;20545;-73
2022/11/20 08:06:06;;;;;;;16.70;15.15;;;4.10;92.10;;;;;;5032685;28;20413;-73
2022/11/20 08:08:34;;;;;;;17.92;16.10;;;4.10;92.00;;;;;;5044117;28;20428;-73
2022/11/20 08:16:33;;;;;;;17.50;16.00;;;4.10;91.60;;;;;;5020109;28;20425;-72
2022/11/20 08:19:00;;;;;;;17.42;15.73;;;4.20;91.60;;;;;;5030361;28;20413;-75
2022/11/20 08:21:27;;;;;;;17.38;15.77;;;4.30;91.50;;;;;;5037411;28;20465;-73
2022/11/20 08:23:55;;;;;;;18.08;16.05;;;4.20;91.40;;;;;;5042225;28;20512;-73
2022/11/20 08:26:22;;;;;;;17.38;15.68;;;4.30;91.30;;;;;;5030611;28;20446;-73
2022/11/20 08:28:49;;;;;;;17.27;15.57;;;4.30;91.70;;;;;;5041206;28;20436;-73
2022/11/20 08:31:15;;;;;;;17.10;15.50;;;4.30;91.90;;;;;;5045759;28;20497;-73
2022/11/20 08:33:42;;;;;;;17.88;16.17;;;4.40;92.30;;;;;;5049000;28;20445;-73
2022/11/20 08:36:09;;;;;;;17.50;15.80;;;4.40;92.10;;;;;;5033526;28;20533;-73
2022/11/20 08:38:36;;;;;;;17.27;15.57;;;4.50;92.00;;;;;;5037498;28;20419;-73
2022/11/20 08:41:25;;;;;;;18.67;16.92;;;4.50;91.40;;;;;;5037825;28;22520;-73
2022/11/20 08:43:54;;;;;;;17.02;15.43;;;4.50;91.00;;;;;;5043406;28;20615;-74
2022/11/20 08:46:21;;;;;;;16.80;15.10;;;4.40;91.00;;;;;;5040387;28;20438;-73
2022/11/20 08:48:48;;;;;;;18.20;16.50;;;4.40;91.00;;;;;;5043764;28;20423;-73
2022/11/20 08:51:15;;;;;;;19.00;17.10;;;4.40;91.00;;;;;;5037330;28;20470;-74
2022/11/20 08:53:42;;;;;;;17.90;16.20;;;4.50;91.00;;;;;;5038270;28;20775;-73
2022/11/20 08:56:10;;;;;;;18.43;16.63;;;4.40;91.10;;;;;;5044200;28;20993;-73
2022/11/20 08:58:37;;;;;;;19.60;17.70;;;4.50;90.90;;;;;;5044524;28;20421;-73
2022/11/20 09:01:04;;;;;;;17.25;15.65;;;4.50;91.20;;;;;;5044396;28;20803;-73
2022/11/20 09:03:31;;;;;;;19.25;17.35;;;4.50;91.00;;;;;;5040217;28;20428;-73
2022/11/20 09:06:00;;;;;;;19.70;17.80;;;4.60;90.70;;;;;;5041838;28;20488;-74
2022/11/20 09:08:27;;;;;;;18.70;16.90;;;4.60;90.70;;;;;;5027902;28;20497;-73
2022/11/20 09:10:53;;;;;;;19.00;17.10;;;4.60;90.90;;;;;;5042599;28;20559;-73
2022/11/20 09:13:22;;;;;;;19.53;17.67;;;4.60;90.60;;;;;;5043051;28;20531;-74
2022/11/20 09:15:54;;;;;;;18.73;16.83;;;4.60;90.90;;;;;;5037167;28;20434;-73
2022/11/20 09:18:20;;;;;;;18.35;16.65;;;4.80;90.90;;;;;;5041527;28;20793;-73
2022/11/20 09:20:47;;;;;;;18.50;16.70;;;4.90;90.70;;;;;;5050093;28;20454;-74
2022/11/20 09:23:14;;;;;;;19.50;17.60;;;4.90;90.30;;;;;;5056223;28;20489;-75
2022/11/20 09:25:41;;;;;;;18.47;16.77;;;4.90;90.00;;;;;;5044717;28;20480;-73
2022/11/20 09:28:07;;;;;;;18.50;16.80;;;4.90;90.10;;;;;;5050336;28;20444;-75
2022/11/20 09:30:36;;;;;;;19.23;17.33;;;4.90;90.20;;;;;;5051489;28;20448;-73
2022/11/20 09:33:05;;;;;;;18.77;16.92;;;4.90;90.20;;;;;;5039613;28;20443;-73
2022/11/20 09:35:32;;;;;;;18.52;16.83;;;5.00;90.20;;;;;;5041389;28;20429;-73
2022/11/20 09:37:59;;;;;;;19.15;17.15;;;5.10;90.10;;;;;;5041655;28;20428;-73
2022/11/20 09:40:28;;;;;;;19.27;17.38;;;5.10;90.00;;;;;;5048862;28;20421;-73
2022/11/20 09:42:59;;;;;;;18.65;16.95;;;5.30;89.90;;;;;;5046514;28;20451;-73
2022/11/20 09:45:39;;;;;;;18.60;16.90;;;5.40;88.60;;;;;;5042157;28;20794;-73
2022/11/20 09:48:21;;;;;;;18.40;16.60;;;5.50;87.80;;;;;;5048307;28;20452;-73
2022/11/20 09:50:54;;;;;;;17.85;16.15;;;5.50;87.10;;;;;;5048292;28;20886;-75
2022/11/20 09:53:31;;;;;;;17.45;15.85;;;5.50;86.90;;;;;;5047813;28;20423;-73
2022/11/20 09:56:00;;;;;;;17.92;16.23;;;5.50;86.20;;;;;;5048086;28;20902;-72
2022/11/20 09:58:32;;;;;;;18.33;16.63;;;5.50;86.40;;;;;;5046635;28;20433;-74
2022/11/20 10:01:09;;;;;;;18.05;16.23;;;5.40;86.60;;;;;;5041156;28;20425;-73
2022/11/20 10:03:42;;;;;;;18.88;17.08;;;5.40;87.40;;;;;;5030667;28;20418;-73
2022/11/20 10:06:16;;;;;;;19.40;17.60;;;5.40;87.70;;;;;;5048364;28;20868;-75
2022/11/20 10:08:46;;;;;;;18.10;16.40;;;5.40;87.60;;;;;;5054131;28;20428;-74
2022/11/20 10:11:24;;;;;;;18.42;16.70;;;5.40;87.70;;;;;;5061057;28;20433;-74
2022/11/20 10:14:03;;;;;;;19.40;17.50;;;5.40;86.70;;;;;;5055050;28;20424;-74
2022/11/20 10:16:42;;;;;;;19.67;17.77;;;5.30;86.90;;;;;;5048453;28;20440;-73
2022/11/20 10:19:26;;;;;;;19.27;17.38;;;5.30;87.70;;;;;;5048325;28;21122;-73
2022/11/20 10:22:05;;;;;;;18.60;16.83;;;5.30;88.50;;;;;;5047352;28;20417;-73
2022/11/20 10:24:49;;;;;;;19.23;17.33;;;5.30;88.50;;;;;;5037867;28;20415;-73
2022/11/20 10:27:29;;;;;;;19.38;17.48;;;5.30;87.70;;;;;;5050467;28;20431;-73
2022/11/20 10:30:08;;;;;;;20.10;18.20;;;5.30;88.50;;;;;;5045904;28;20436;-73
2022/11/20 10:32:39;;;;;;;20.35;18.35;;;5.20;89.30;;;;;;5045857;28;20977;-73
2022/11/20 10:35:15;;;;;;;21.00;18.90;;;5.20;89.50;;;;;;5047691;28;20436;-73
2022/11/20 10:37:45;;;;;;;20.98;18.98;;;5.30;89.40;;;;;;5047736;28;20425;-73
2022/11/20 10:40:23;;;;;;;19.25;17.42;;;5.30;89.70;;;;;;5046110;28;20459;-75
2022/11/20 10:42:55;;;;;;;21.23;19.13;;;5.30;89.40;;;;;;5047698;28;20436;-75
2022/11/20 10:45:35;;;;;;;20.27;18.40;;;5.40;89.90;;;;;;5046929;28;20543;-75
2022/11/20 10:48:13;;;;;;;19.70;17.80;;;5.40;89.60;;;;;;5049388;28;20520;-74
2022/11/20 10:50:50;;;;;;;21.35;19.25;;;5.40;88.90;;;;;;5045494;28;20910;-74
2022/11/20 10:53:28;;;;;;;20.60;18.60;;;5.40;89.10;;;;;;5036936;28;20429;-75
2022/11/20 10:55:58;;;;;;;20.17;18.27;;;5.40;89.10;;;;;;5048846;28;20439;-75
2022/11/20 10:58:35;;;;;;;20.70;18.65;;;5.40;88.70;;;;;;5036542;28;20428;-75
2022/11/20 11:01:06;;;;;;;20.25;18.33;;;5.30;89.50;;;;;;5046531;28;20499;-75
2022/11/20 11:03:34;;;;;;;20.48;18.48;;;5.30;89.90;;;;;;5041330;28;20449;-75
2022/11/20 11:06:07;;;;;;;19.58;17.67;;;5.30;89.80;;;;;;5054240;28;20574;-75
2022/11/20 11:08:38;;;;;;;19.95;17.90;;;5.30;90.00;;;;;;5035983;28;20422;-74
2022/11/20 11:11:21;;;;;;;20.25;18.30;;;5.30;90.20;;;;;;5053678;28;20974;-75
2022/11/20 11:13:47;;;;;;;19.38;17.48;;;5.30;90.00;;;;;;5045846;28;20767;-74
2022/11/20 11:16:22;;;;;;;18.25;16.55;;;5.30;89.50;;;;;;5036127;28;20939;-74
2022/11/20 11:18:50;;;;;;;19.88;17.77;;;5.30;89.40;;;;;;5040896;28;20951;-74
2022/11/20 11:21:23;;;;;;;19.92;18.10;;;5.30;89.60;;;;;;5045953;28;20436;-75
2022/11/20 11:23:59;;;;;;;19.65;17.60;;;5.30;90.10;;;;;;5045384;28;20421;-75
2022/11/20 11:26:27;;;;;;;20.15;18.25;;;5.30;90.10;;;;;;5041120;28;20551;-75
2022/11/20 11:28:55;;;;;;;19.88;17.98;;;5.30;90.50;;;;;;5041562;28;20431;-75
2022/11/20 11:31:26;;;;;;;19.27;17.38;;;5.40;90.40;;;;;;5045391;28;20748;-75
2022/11/20 11:34:05;;;;;;;18.70;17.00;;;5.50;90.40;;;;;;5043837;28;20537;-74
2022/11/20 11:36:33;;;;;;;18.60;16.80;;;5.60;89.70;;;;;;5045317;28;20522;-75
2022/11/20 11:39:01;;;;;;;19.27;17.27;;;5.70;88.60;;;;;;5045425;28;20434;-75
2022/11/20 11:41:32;;;;;;;20.13;18.13;;;5.60;89.00;;;;;;5040334;28;20495;-75
2022/11/20 11:46:55;;;;;;;19.60;17.80;;;5.60;89.20;;;;;;5045143;28;20619;-75
2022/11/20 11:49:24;;;;;;;20.10;18.15;;;5.60;89.40;;;;;;5044453;28;20508;-74
2022/11/20 11:52:02;;;;;;;19.98;17.98;;;5.60;89.60;;;;;;5044954;28;20417;-74
2022/11/20 11:54:35;;;;;;;20.60;18.60;;;5.60;89.30;;;;;;5037761;28;20896;-75
2022/11/20 11:57:06;;;;;;;20.63;18.63;;;5.60;88.50;;;;;;5048557;28;20507;-75
2022/11/20 11:59:48;;;;;;;20.10;18.20;;;5.60;89.10;;;;;;5042846;28;20438;-77
2022/11/20 12:02:30;;;;;;;18.98;16.98;;;5.60;88.80;;;;;;5031103;28;20449;-76
2022/11/20 12:05:02;;;;;;;19.27;17.33;;;5.50;89.70;;;;;;5047632;28;20519;-76
2022/11/20 12:07:40;;;;;;;19.05;17.25;;;5.50;89.70;;;;;;5058957;28;20431;-76
2022/11/20 12:10:16;;;;;;;19.60;17.60;;;5.50;89.70;;;;;;5057076;28;20441;-76
2022/11/20 12:12:47;;;;;;;18.98;17.08;;;5.50;89.90;;;;;;5047887;28;21164;-75
2022/11/20 12:15:29;;;;;;;19.05;17.05;;;5.50;89.60;;;;;;5038428;28;20440;-75
2022/11/20 12:17:56;;;;;;;19.33;17.35;;;5.60;89.80;;;;;;5036807;28;20506;-79
2022/11/20 12:20:30;;;;;;;18.50;16.70;;;5.60;89.50;;;;;;5043140;28;20421;-74
2022/11/20 12:23:05;;;;;;;20.77;18.67;;;5.50;90.00;;;;;;5041393;28;20464;-74
2022/11/20 12:25:36;;;;;;;19.98;17.88;;;5.60;89.90;;;;;;5032306;28;20484;-74
2022/11/20 12:28:22;;;;;;;21.27;19.17;;;5.60;90.00;;;;;;5042726;28;20795;-74
2022/11/20 12:31:03;;;;;;;19.25;17.35;;;5.60;90.30;;;;;;5040242;28;20536;-75
2022/11/20 12:33:54;;;;;;;18.40;16.60;;;5.50;90.30;;;;;;5041549;28;20437;-77
2022/11/20 12:36:32;;;;;;;20.02;18.02;;;5.60;90.30;;;;;;5037702;28;20436;-76
2022/11/20 12:39:19;;;;;;;20.40;18.40;;;5.60;90.30;;;;;;5040340;28;21065;-77
2022/11/20 12:45:29;;;;;;;19.00;17.02;;;5.70;89.70;;;;;;5042061;28;20520;-75
2022/11/20 12:48:22;;;;;;;18.83;16.83;;;5.70;90.00;;;;;;5038026;28;20452;-77
2022/11/20 12:51:06;;;;;;;18.80;17.00;;;5.80;89.50;;;;;;5041146;28;20433;-77
2022/11/20 12:53:41;;;;;;;18.30;16.50;;;5.80;88.80;;;;;;5050141;28;20520;-76
2022/11/20 12:56:18;;;;;;;18.08;16.27;;;5.80;89.20;;;;;;5040000;28;20445;-77
2022/11/20 12:58:56;;;;;;;19.35;17.45;;;5.90;89.10;;;;;;5044622;28;20425;-77
2022/11/20 13:01:40;;;;;;;19.27;17.27;;;5.90;88.70;;;;;;5044826;28;20413;-74